Time;durP1;ratioP1;P1;durP2;ratioP2;P2;SDS_P1;SDS_P2;PMS_P1;PMS_P2;Temp;Humidity;BMP_temperature;BMP_pressure;BME280_temperature;BME280_humidity;BME280_pressure;Samples;Min_cycle;Max_cycle;Signal;HPM_P1;HPM_P2
2022/11/01 00:01:24;;;;;;;;;;;;;;;10.21;100.00;101123.50;5550894;32;35235;-72
2022/11/01 00:04:32;;;;;;;;;;;;;;;10.18;100.00;101131.72;5537934;32;35150;-72
2022/11/01 00:07:38;;;;;;;;;;;;;;;10.17;100.00;101119.44;5550790;32;34540;-72
2022/11/01 00:10:45;;;;;;;;;;;;;;;10.17;100.00;101115.94;5537892;32;35170;-71
2022/11/01 00:13:51;;;;;;;;;;;;;;;10.26;100.00;101115.09;5550741;32;34631;-72
2022/11/01 00:16:59;;;;;;;;;;;;;;;10.22;100.00;101111.87;5550689;32;34932;-72
2022/11/01 00:20:05;;;;;;;;;;;;;;;10.15;100.00;101105.47;5550680;32;34973;-72
2022/11/01 00:23:12;;;;;;;;;;;;;;;10.11;100.00;101105.94;5550199;32;35144;-72
2022/11/01 00:26:20;;;;;;;;;;;;;;;10.09;100.00;101106.06;5550971;32;34811;-72
2022/11/01 00:29:26;;;;;;;;;;;;;;;10.16;100.00;101103.69;5550426;32;35169;-72
2022/11/01 00:32:31;;;;;;;;;;;;;;;10.10;100.00;101109.56;5536635;32;34862;-72
2022/11/01 00:35:38;;;;;;;;;;;;;;;10.16;100.00;101101.03;5550413;32;34526;-72
2022/11/01 00:38:51;;;;;;;;;;;;;;;10.18;100.00;101104.37;5537371;32;34913;-72
2022/11/01 00:41:59;;;;;;;;;;;;;;;10.17;100.00;101102.69;5536583;32;34360;-72
2022/11/01 00:45:04;;;;;;;;;;;;;;;10.16;100.00;101109.84;5550326;32;35202;-72
2022/11/01 00:48:07;;;;;;;;;;;;;;;10.14;100.00;101105.63;5550316;32;34894;-72
2022/11/01 00:51:11;;;;;;;;;;;;;;;10.17;100.00;101100.03;5536172;32;34735;-72
2022/11/01 00:54:17;;;;;;;;;;;;;;;10.20;100.00;101100.59;5550194;32;35180;-72
2022/11/01 00:57:24;;;;;;;;;;;;;;;10.13;100.00;101091.53;5550140;32;34407;-72
2022/11/01 01:00:30;;;;;;;;;;;;;;;10.12;100.00;101092.50;5536925;32;34568;-72
2022/11/01 01:03:37;;;;;;;;;;;;;;;10.17;100.00;101097.38;5549969;32;34490;-72
2022/11/01 01:06:43;;;;;;;;;;;;;;;10.20;100.00;101082.03;5535706;32;34589;-72
2022/11/01 01:09:48;;;;;;;;;;;;;;;10.18;100.00;101075.19;5550025;32;35049;-72
2022/11/01 01:12:53;;;;;;;;;;;;;;;10.20;100.00;101075.91;5550023;32;34497;-72
2022/11/01 01:16:00;;;;;;;;;;;;;;;10.29;100.00;101077.66;5535420;32;35130;-72
2022/11/01 01:19:10;;;;;;;;;;;;;;;10.22;100.00;101072.09;5549742;32;35136;-72
2022/11/01 01:22:18;;;;;;;;;;;;;;;10.20;100.00;101068.78;5549473;32;35270;-72
2022/11/01 01:25:24;;;;;;;;;;;;;;;10.22;100.00;101068.63;5549625;32;35091;-72
2022/11/01 01:28:31;;;;;;;;;;;;;;;10.18;100.00;101054.81;5535293;32;34811;-72
2022/11/01 01:31:39;;;;;;;;;;;;;;;10.19;100.00;101053.84;5549522;32;35259;-73
2022/11/01 01:34:48;;;;;;;;;;;;;;;10.16;100.00;101050.66;5551316;32;34834;-72
2022/11/01 01:38:00;;;;;;;;;;;;;;;10.13;100.00;101059.72;5552073;32;34444;-72
2022/11/01 01:45:00;;;;;;;;;;;;;;;10.20;100.00;101060.00;5552007;32;35093;-72
2022/11/01 01:48:10;;;;;;;;;;;;;;;10.07;100.00;101051.53;5498312;32;35051;-72
2022/11/01 01:51:19;;;;;;;;;;;;;;;10.08;100.00;101056.66;5551978;32;34369;-72
2022/11/01 01:54:26;;;;;;;;;;;;;;;10.10;100.00;101059.19;5552274;32;34435;-72
2022/11/01 01:57:32;;;;;;;;;;;;;;;10.08;100.00;101058.47;5537841;32;34563;-72
2022/11/01 02:00:42;;;;;;;;;;;;;;;10.08;100.00;101043.41;5551929;32;34618;-72
2022/11/01 02:03:53;;;;;;;;;;;;;;;10.17;100.00;101044.34;5551892;32;34511;-72
2022/11/01 02:07:02;;;;;;;;;;;;;;;10.07;100.00;101046.22;5551786;32;35104;-72
2022/11/01 02:10:13;;;;;;;;;;;;;;;10.11;100.00;101047.59;5551956;32;34377;-72
2022/11/01 02:13:21;;;;;;;;;;;;;;;10.15;100.00;101046.31;5538914;32;35033;-73
2022/11/01 02:16:47;;;;;;;;;;;;;;;10.08;100.00;101042.56;5551852;32;34501;-73
2022/11/01 02:20:08;;;;;;;;;;;;;;;10.11;100.00;101037.81;5551776;32;34551;-72
2022/11/01 02:23:25;;;;;;;;;;;;;;;10.06;100.00;101037.44;5551661;32;35281;-73
2022/11/01 02:26:54;;;;;;;;;;;;;;;10.08;100.00;101038.09;5551692;32;34721;-73
2022/11/01 02:30:05;;;;;;;;;;;;;;;10.07;100.00;101046.22;5551782;32;34667;-73
2022/11/01 02:33:27;;;;;;;;;;;;;;;10.07;100.00;101043.59;5551696;32;34688;-73
2022/11/01 02:36:37;;;;;;;;;;;;;;;10.04;100.00;101031.44;5551547;32;35261;-73
2022/11/01 02:39:52;;;;;;;;;;;;;;;9.96;100.00;101034.84;5551632;32;34531;-73
2022/11/01 02:43:01;;;;;;;;;;;;;;;10.11;100.00;101029.87;5551457;32;34575;-73
2022/11/01 02:49:32;;;;;;;;;;;;;;;10.03;100.00;101022.66;5551483;32;34523;-73
2022/11/01 02:52:41;;;;;;;;;;;;;;;10.00;100.00;101011.53;5551440;32;34695;-73
2022/11/01 02:55:50;;;;;;;;;;;;;;;10.00;100.00;101016.81;5537236;32;34037;-73
2022/11/01 02:58:57;;;;;;;;;;;;;;;10.02;100.00;101010.37;5551311;32;34420;-73
2022/11/01 03:02:09;;;;;;;;;;;;;;;10.02;100.00;101009.56;5551490;32;34855;-73
2022/11/01 03:05:31;;;;;;;;;;;;;;;10.03;100.00;101019.16;5538301;32;34848;-73
2022/11/01 03:08:40;;;;;;;;;;;;;;;10.06;100.00;101020.69;5551290;32;35109;-73
2022/11/01 03:11:55;;;;;;;;;;;;;;;9.95;100.00;101030.53;5551649;32;34989;-73
2022/11/01 03:15:19;;;;;;;;;;;;;;;9.88;100.00;101026.78;5551241;32;34676;-73
2022/11/01 03:18:31;;;;;;;;;;;;;;;9.77;100.00;101024.34;5551210;32;35193;-72
2022/11/01 03:21:41;;;;;;;;;;;;;;;9.77;100.00;101027.00;5551097;32;34906;-72
2022/11/01 03:25:00;;;;;;;;;;;;;;;9.84;100.00;101024.56;5551138;32;34439;-73
2022/11/01 03:28:06;;;;;;;;;;;;;;;9.82;100.00;101023.91;5550969;32;34662;-73
2022/11/01 03:31:15;;;;;;;;;;;;;;;9.81;100.00;101020.41;5551183;32;35128;-74
2022/11/01 03:34:21;;;;;;;;;;;;;;;9.87;100.00;101033.09;5537473;32;34621;-73
2022/11/01 03:37:30;;;;;;;;;;;;;;;9.89;100.00;101035.56;5551153;32;34565;-73
2022/11/01 03:40:39;;;;;;;;;;;;;;;9.88;100.00;101036.53;5537857;32;34586;-74
2022/11/01 03:43:47;;;;;;;;;;;;;;;9.91;100.00;101034.44;5537090;32;35469;-73
2022/11/01 03:46:54;;;;;;;;;;;;;;;9.91;100.00;101025.66;5551032;32;34908;-73
2022/11/01 03:50:32;;;;;;;;;;;;;;;9.85;100.00;101021.78;5537880;32;34578;-73
2022/11/01 03:53:38;;;;;;;;;;;;;;;9.91;100.00;101023.00;5518194;32;34650;-73
2022/11/01 03:56:46;;;;;;;;;;;;;;;9.86;100.00;101026.09;5550142;32;35137;-73
2022/11/01 03:59:54;;;;;;;;;;;;;;;9.82;100.00;101019.44;5537908;32;34982;-73
2022/11/01 04:03:01;;;;;;;;;;;;;;;9.76;100.00;101014.72;5538042;32;34649;-73
2022/11/01 04:06:09;;;;;;;;;;;;;;;9.81;100.00;101016.94;5550898;32;34563;-74
2022/11/01 04:09:14;;;;;;;;;;;;;;;9.81;100.00;101007.16;5550844;32;35283;-73
2022/11/01 04:12:22;;;;;;;;;;;;;;;9.76;100.00;100995.34;5550837;32;34463;-73
2022/11/01 04:22:20;;;;;;;;;;;;;;;9.66;100.00;100992.72;5550387;32;35182;-72
2022/11/01 04:25:32;;;;;;;;;;;;;;;9.66;100.00;100989.25;5550600;32;34559;-73
2022/11/01 04:28:43;;;;;;;;;;;;;;;9.77;100.00;100989.91;5550538;32;34612;-73
2022/11/01 04:31:53;;;;;;;;;;;;;;;9.85;100.00;100997.94;5550664;32;34925;-72
2022/11/01 04:34:59;;;;;;;;;;;;;;;9.75;100.00;100993.66;5550517;32;35305;-72
2022/11/01 04:38:06;;;;;;;;;;;;;;;9.72;100.00;101004.56;5550513;32;34477;-72
2022/11/01 04:41:12;;;;;;;;;;;;;;;9.66;100.00;101002.50;5550460;32;35103;-73
2022/11/01 04:44:21;;;;;;;;;;;;;;;9.68;100.00;100992.59;5550353;32;35187;-72
2022/11/01 04:47:26;;;;;;;;;;;;;;;9.66;100.00;100999.84;5537060;32;35094;-73
2022/11/01 04:50:32;;;;;;;;;;;;;;;9.60;100.00;100991.50;5550208;32;34438;-72
2022/11/01 04:53:39;;;;;;;;;;;;;;;9.72;100.00;100997.44;5550084;32;35039;-72
2022/11/01 04:56:47;;;;;;;;;;;;;;;9.69;100.00;100997.72;5550120;32;35082;-72
2022/11/01 04:59:54;;;;;;;;;;;;;;;9.68;100.00;101004.03;5550048;32;35141;-72
2022/11/01 05:03:03;;;;;;;;;;;;;;;9.68;100.00;100993.44;5537066;32;34586;-72
2022/11/01 05:06:11;;;;;;;;;;;;;;;9.62;100.00;100996.66;5549928;32;34913;-72
2022/11/01 05:09:21;;;;;;;;;;;;;;;9.67;100.00;100997.06;5551263;32;34868;-72
2022/11/01 05:12:26;;;;;;;;;;;;;;;9.67;100.00;100996.22;5552375;32;35170;-72
2022/11/01 05:15:35;;;;;;;;;;;;;;;9.69;100.00;100996.87;5552326;32;35238;-72
2022/11/01 05:18:47;;;;;;;;;;;;;;;9.63;100.00;100990.38;5538117;32;33653;-72
2022/11/01 05:21:54;;;;;;;;;;;;;;;9.68;100.00;100996.09;5551964;32;34831;-72
2022/11/01 05:25:00;;;;;;;;;;;;;;;9.68;100.00;100987.28;5538083;32;34825;-71
2022/11/01 05:28:10;;;;;;;;;;;;;;;9.56;100.00;100987.47;5551953;32;35134;-71
2022/11/01 05:31:15;;;;;;;;;;;;;;;9.55;100.00;100984.97;5552076;32;34592;-71
2022/11/01 05:34:23;;;;;;;;;;;;;;;9.55;100.00;100988.47;5552395;32;34511;-71
2022/11/01 05:37:31;;;;;;;;;;;;;;;9.58;100.00;100985.50;5551999;32;34559;-71
2022/11/01 05:40:39;;;;;;;;;;;;;;;9.67;100.00;100989.09;5552089;32;34643;-71
2022/11/01 05:43:45;;;;;;;;;;;;;;;9.63;100.00;100981.59;5538600;32;35098;-71
2022/11/01 05:46:55;;;;;;;;;;;;;;;9.64;100.00;100984.09;5551949;32;34549;-71
2022/11/01 05:50:02;;;;;;;;;;;;;;;9.58;100.00;100982.03;5551975;32;35224;-71
2022/11/01 05:53:08;;;;;;;;;;;;;;;9.53;100.00;100993.09;5551979;32;34441;-71
2022/11/01 05:56:15;;;;;;;;;;;;;;;9.49;100.00;100999.63;5551922;32;35020;-71
2022/11/01 05:59:23;;;;;;;;;;;;;;;9.49;100.00;100994.31;5551984;32;35245;-71
2022/11/01 06:02:31;;;;;;;;;;;;;;;9.45;100.00;100992.94;5551854;32;34552;-71
2022/11/01 06:05:40;;;;;;;;;;;;;;;9.55;100.00;100995.56;5551867;32;34913;-71
2022/11/01 06:08:47;;;;;;;;;;;;;;;9.50;100.00;101001.31;5537699;32;34877;-71
2022/11/01 06:11:55;;;;;;;;;;;;;;;9.55;100.00;100995.56;5551849;32;34566;-71
2022/11/01 06:15:01;;;;;;;;;;;;;;;9.64;100.00;100996.50;5551714;32;35171;-72
2022/11/01 06:18:09;;;;;;;;;;;;;;;9.55;100.00;101003.50;5551612;32;34565;-71
2022/11/01 06:21:20;;;;;;;;;;;;;;;9.52;100.00;101009.94;5551044;32;35154;-72
2022/11/01 06:24:34;;;;;;;;;;;;;;;9.54;100.00;101002.66;5551643;32;34463;-72
2022/11/01 06:27:41;;;;;;;;;;;;;;;9.57;100.00;101013.00;5551596;32;35037;-72
2022/11/01 06:30:49;;;;;;;;;;;;;;;9.67;100.00;101005.00;5551569;32;35215;-72
2022/11/01 06:33:56;;;;;;;;;;;;;;;9.66;100.00;101008.62;5551718;32;34992;-71
2022/11/01 06:37:02;;;;;;;;;;;;;;;9.71;100.00;101014.31;5551606;32;34877;-72
2022/11/01 06:40:09;;;;;;;;;;;;;;;9.83;100.00;101012.28;5551530;32;35101;-71
2022/11/01 06:43:17;;;;;;;;;;;;;;;9.78;100.00;101014.59;5551588;32;34453;-71
2022/11/01 06:46:24;;;;;;;;;;;;;;;9.73;100.00;101011.53;5537480;32;35377;-71
2022/11/01 06:49:31;;;;;;;;;;;;;;;9.66;100.00;101015.75;5551449;32;34844;-71
2022/11/01 06:52:38;;;;;;;;;;;;;;;9.73;100.00;101016.84;5551359;32;35073;-71
2022/11/01 06:55:45;;;;;;;;;;;;;;;9.80;100.00;101017.91;5551400;32;35021;-71
2022/11/01 06:58:50;;;;;;;;;;;;;;;9.70;100.00;101019.75;5537509;32;34908;-71
2022/11/01 07:01:56;;;;;;;;;;;;;;;9.77;100.00;101023.50;5537745;32;34344;-71
2022/11/01 07:05:03;;;;;;;;;;;;;;;9.95;100.00;101019.91;5551330;32;34452;-71
2022/11/01 07:08:09;;;;;;;;;;;;;;;9.69;100.00;101031.34;5536609;32;35058;-70
2022/11/01 07:11:17;;;;;;;;;;;;;;;9.89;100.00;101028.44;5536702;32;35401;-71
2022/11/01 07:14:23;;;;;;;;;;;;;;;9.91;100.00;101037.09;5551300;32;35057;-71
2022/11/01 07:17:32;;;;;;;;;;;;;;;9.98;100.00;101030.22;5551163;32;35141;-71
2022/11/01 07:20:41;;;;;;;;;;;;;;;9.97;100.00;101035.69;5551233;32;34524;-72
2022/11/01 07:23:52;;;;;;;;;;;;;;;10.00;100.00;101038.03;5538354;32;35182;-71
2022/11/01 07:27:00;;;;;;;;;;;;;;;9.93;100.00;101032.47;5551243;32;35146;-71
2022/11/01 07:30:08;;;;;;;;;;;;;;;9.66;100.00;101027.19;5551011;32;35213;-72
2022/11/01 07:33:15;;;;;;;;;;;;;;;9.63;100.00;101030.13;5537315;32;35231;-72
2022/11/01 07:36:23;;;;;;;;;;;;;;;9.80;100.00;101029.34;5551490;32;35028;-72
2022/11/01 07:39:32;;;;;;;;;;;;;;;9.90;100.00;101035.44;5551183;32;34544;-72
2022/11/01 07:42:43;;;;;;;;;;;;;;;9.95;100.00;101029.69;5537276;32;34694;-72
2022/11/01 07:45:52;;;;;;;;;;;;;;;9.90;100.00;101035.44;5551211;32;34927;-72
2022/11/01 07:48:59;;;;;;;;;;;;;;;9.94;100.00;101041.25;5551027;32;34557;-72
2022/11/01 07:52:07;;;;;;;;;;;;;;;9.75;100.00;101041.34;5537055;32;34603;-72
2022/11/01 07:55:16;;;;;;;;;;;;;;;9.75;100.00;101034.25;5537069;32;34519;-72
2022/11/01 07:58:25;;;;;;;;;;;;;;;9.97;100.00;101036.50;5550619;32;35230;-72
2022/11/01 08:01:32;;;;;;;;;;;;;;;10.05;100.00;101027.81;5536967;32;33122;-72
2022/11/01 08:04:40;;;;;;;;;;;;;;;10.21;100.00;101033.34;5550906;32;35079;-72
2022/11/01 08:07:46;;;;;;;;;;;;;;;10.32;100.00;101026.97;5551253;32;34387;-72
2022/11/01 08:10:52;;;;;;;;;;;;;;;10.15;100.00;101030.41;5550853;32;34501;-72
2022/11/01 08:14:01;;;;;;;;;;;;;;;10.11;100.00;101037.00;5524735;32;34467;-72
2022/11/01 08:17:13;;;;;;;;;;;;;;;10.27;100.00;101022.09;5550674;32;35106;-72
2022/11/01 08:20:20;;;;;;;;;;;;;;;10.08;100.00;101026.66;5537425;32;35080;-71
2022/11/01 08:23:28;;;;;;;;;;;;;;;10.13;100.00;101022.59;5550523;32;34527;-71
2022/11/01 08:26:35;;;;;;;;;;;;;;;10.01;100.00;101026.44;5550682;32;35177;-72
2022/11/01 08:29:42;;;;;;;;;;;;;;;9.86;100.00;101023.47;5550846;32;34572;-72
2022/11/01 08:32:48;;;;;;;;;;;;;;;9.80;100.00;101020.56;5550660;32;35180;-72
2022/11/01 08:35:55;;;;;;;;;;;;;;;10.08;100.00;101027.50;5536487;32;34632;-72
2022/11/01 08:39:04;;;;;;;;;;;;;;;10.22;100.00;101034.97;5536611;32;33288;-72
2022/11/01 08:42:11;;;;;;;;;;;;;;;10.28;100.00;101033.56;5550075;32;35002;-72
2022/11/01 08:45:17;;;;;;;;;;;;;;;10.35;100.00;101037.28;5550348;32;35206;-72
2022/11/01 08:48:23;;;;;;;;;;;;;;;10.48;100.00;101034.25;5536158;32;35364;-72
2022/11/01 08:51:31;;;;;;;;;;;;;;;10.63;100.00;101025.62;5549999;32;34668;-72
2022/11/01 08:54:38;;;;;;;;;;;;;;;10.75;100.00;101026.19;5550198;32;34548;-72
2022/11/01 08:57:47;;;;;;;;;;;;;;;10.71;100.00;101014.22;5537078;32;34632;-72
2022/11/01 09:00:56;;;;;;;;;;;;;;;10.16;100.00;101022.34;5550218;32;34383;-71
2022/11/01 09:04:04;;;;;;;;;;;;;;;10.05;100.00;101022.50;5550014;32;35161;-71
2022/11/01 09:07:13;;;;;;;;;;;;;;;10.19;100.00;101015.91;5536109;32;34706;-72
2022/11/01 09:10:20;;;;;;;;;;;;;;;10.27;100.00;101026.56;5536178;32;35303;-72
2022/11/01 09:13:26;;;;;;;;;;;;;;;10.50;100.00;101025.19;5549852;32;34965;-72
2022/11/01 09:16:31;;;;;;;;;;;;;;;10.64;100.00;101013.19;5523240;32;35881;-72
2022/11/01 09:19:38;;;;;;;;;;;;;;;10.63;100.00;101016.81;5549680;32;34570;-72
2022/11/01 09:22:49;;;;;;;;;;;;;;;10.34;100.00;101019.69;5529254;32;34396;-71
2022/11/01 09:26:01;;;;;;;;;;;;;;;10.39;100.00;101020.09;5529322;32;34637;-71
2022/11/01 09:29:08;;;;;;;;;;;;;;;10.62;100.00;101015.16;5529571;32;34953;-71
2022/11/01 09:32:15;;;;;;;;;;;;;;;10.63;100.00;101015.00;5530129;32;35163;-71
2022/11/01 09:35:20;;;;;;;;;;;;;;;10.93;100.00;101019.06;5528947;32;35053;-72
2022/11/01 09:38:27;;;;;;;;;;;;;;;11.04;100.00;101007.34;5529070;32;34564;-71
2022/11/01 09:41:41;;;;;;;;;;;;;;;10.92;100.00;101005.94;5528547;32;36933;-71
2022/11/01 09:44:49;;;;;;;;;;;;;;;11.00;100.00;101020.09;5529866;32;35188;-71
2022/11/01 09:47:58;;;;;;;;;;;;;;;10.96;100.00;101015.25;5529728;32;34671;-71
2022/11/01 09:51:10;;;;;;;;;;;;;;;10.63;100.00;101000.91;5529842;32;35148;-71
2022/11/01 09:54:18;;;;;;;;;;;;;;;10.38;100.00;101005.97;5530239;32;34359;-71
2022/11/01 09:57:25;;;;;;;;;;;;;;;10.55;100.00;101001.69;5531497;32;34630;-71
2022/11/01 10:00:34;;;;;;;;;;;;;;;10.62;100.00;101001.88;5531341;32;35070;-70
2022/11/01 10:04:04;;;;;;;;;;;;;;;10.55;100.00;101004.34;5532372;32;35177;-71
2022/11/01 10:07:14;;;;;;;;;;;;;;;10.77;100.00;101003.00;5532294;32;34889;-71
2022/11/01 10:10:20;;;;;;;;;;;;;;;10.91;100.00;101010.41;5532327;32;35140;-70
2022/11/01 10:13:43;;;;;;;;;;;;;;;10.83;100.00;101003.22;5532163;32;35163;-70
2022/11/01 10:17:06;;;;;;;;;;;;;;;11.14;100.00;101000.09;5532069;32;34871;-71
2022/11/01 10:20:14;;;;;;;;;;;;;;;10.82;100.00;100990.94;5531573;32;35203;-71
2022/11/01 10:23:23;;;;;;;;;;;;;;;10.71;100.00;100996.50;5531070;32;34879;-70
2022/11/01 10:26:29;;;;;;;;;;;;;;;10.61;100.00;100995.75;5532079;32;34534;-70
2022/11/01 10:29:54;;;;;;;;;;;;;;;10.56;100.00;100987.41;5530743;32;35481;-71
2022/11/01 10:33:32;;;;;;;;;;;;;;;10.93;100.00;100979.25;5532079;32;35014;-70
2022/11/01 10:36:43;;;;;;;;;;;;;;;11.03;100.00;100979.97;5507816;32;34599;-72
2022/11/01 10:39:55;;;;;;;;;;;;;;;11.34;100.00;100983.81;5531852;32;34176;-71
2022/11/01 10:43:12;;;;;;;;;;;;;;;11.41;100.00;100988.50;5531779;32;35195;-71
2022/11/01 10:46:21;;;;;;;;;;;;;;;11.45;100.00;100981.88;5532206;32;34429;-71
2022/11/01 10:49:31;;;;;;;;;;;;;;;11.48;100.00;100989.50;5531831;32;34463;-71
2022/11/01 10:53:03;;;;;;;;;;;;;;;11.48;100.00;100990.34;5531649;32;34919;-71
2022/11/01 10:56:16;;;;;;;;;;;;;;;11.26;100.00;100982.94;5531874;32;34634;-70
2022/11/01 10:59:32;;;;;;;;;;;;;;;11.09;100.00;100975.84;5530662;32;33342;-71
2022/11/01 11:02:42;;;;;;;;;;;;;;;11.34;100.00;100977.66;5531818;32;34536;-71
2022/11/01 11:05:49;;;;;;;;;;;;;;;11.38;100.00;100978.16;5531823;32;35514;-70
2022/11/01 11:08:55;;;;;;;;;;;;;;;11.36;100.00;100980.16;5531764;32;35081;-71
2022/11/01 11:12:04;;;;;;;;;;;;;;;11.56;100.00;100976.28;5531077;32;34623;-70
2022/11/01 11:15:22;;;;;;;;;;;;;;;11.50;100.00;100975.09;5531867;32;35177;-70
2022/11/01 11:18:29;;;;;;;;;;;;;;;11.26;100.00;100978.47;5530292;32;34937;-70
2022/11/01 11:21:33;;;;;;;;;;;;;;;11.44;100.00;100981.03;5534397;32;35202;-70
2022/11/01 11:24:38;;;;;;;;;;;;;;;11.48;100.00;100974.41;5551147;32;34508;-70
2022/11/01 11:27:43;;;;;;;;;;;;;;;11.52;100.00;100974.94;5551065;32;34565;-70
2022/11/01 11:30:49;;;;;;;;;;;;;;;11.26;100.00;100967.84;5551122;32;34333;-70
2022/11/01 11:33:59;;;;;;;;;;;;;;;10.97;100.00;100962.00;5551059;32;34967;-70
2022/11/01 11:37:06;;;;;;;;;;;;;;;11.05;100.00;100947.94;5537210;32;34760;-70
2022/11/01 11:40:12;;;;;;;;;;;;;;;10.93;100.00;100955.34;5550931;32;34529;-71
2022/11/01 11:43:19;;;;;;;;;;;;;;;10.92;100.00;100944.88;5551257;32;34449;-70
2022/11/01 11:46:23;;;;;;;;;;;;;;;11.03;100.00;100958.75;5550860;32;35123;-71
2022/11/01 11:49:31;;;;;;;;;;;;;;;11.31;100.00;100957.56;5551218;32;35201;-70
2022/11/01 11:52:38;;;;;;;;;;;;;;;11.42;100.00;100950.31;5537148;32;34541;-70
2022/11/01 11:55:45;;;;;;;;;;;;;;;11.48;100.00;100941.69;5550792;32;35147;-70
2022/11/01 11:58:55;;;;;;;;;;;;;;;11.60;100.00;100946.56;5524550;32;34471;-71
2022/11/01 12:02:01;;;;;;;;;;;;;;;11.73;100.00;100948.78;5550807;32;34615;-70
2022/11/01 12:05:08;;;;;;;;;;;;;;;11.58;100.00;100945.06;5536848;32;34889;-70
2022/11/01 12:08:24;;;;;;;;;;;;;;;11.35;100.00;100944.78;5537320;32;34207;-70
2022/11/01 12:11:38;;;;;;;;;;;;;;;11.39;100.00;100938.16;5550765;32;35118;-70
2022/11/01 12:14:46;;;;;;;;;;;;;;;11.57;100.00;100932.78;5550572;32;34908;-70
2022/11/01 12:17:53;;;;;;;;;;;;;;;11.68;100.00;100930.66;5549939;32;34512;-70
2022/11/01 12:20:57;;;;;;;;;;;;;;;11.67;100.00;100939.59;5511345;32;415752;-70
2022/11/01 12:24:21;;;;;;;;;;;;;;;11.73;100.00;100925.72;5550449;32;34921;-71
2022/11/01 12:27:27;;;;;;;;;;;;;;;11.80;100.00;100930.38;5550339;32;35234;-70
2022/11/01 12:30:34;;;;;;;;;;;;;;;11.92;100.00;100924.59;5550271;32;35201;-71
2022/11/01 12:33:58;;;;;;;;;;;;;;;11.78;100.00;100922.56;5550364;32;34463;-71
2022/11/01 12:37:08;;;;;;;;;;;;;;;11.90;100.00;100920.44;5536291;32;34010;-71
2022/11/01 12:40:17;;;;;;;;;;;;;;;11.83;100.00;100917.59;5550267;32;34899;-71
2022/11/01 12:43:29;;;;;;;;;;;;;;;11.99;100.00;100912.31;5550309;32;35182;-70
2022/11/01 12:46:38;;;;;;;;;;;;;;;12.02;100.00;100906.66;5550303;32;35020;-70
2022/11/01 12:49:54;;;;;;;;;;;;;;;12.00;100.00;100898.03;5550269;32;35103;-70
2022/11/01 12:53:03;;;;;;;;;;;;;;;12.03;100.00;100899.50;5550109;32;35375;-71
2022/11/01 12:56:10;;;;;;;;;;;;;;;12.01;100.00;100893.50;5536329;32;37028;-70
2022/11/01 12:59:21;;;;;;;;;;;;;;;12.05;100.00;100893.03;5550071;32;34966;-70
2022/11/01 13:02:45;;;;;;;;;;;;;;;12.06;100.00;100885.88;5536159;32;34387;-70
2022/11/01 13:05:55;;;;;;;;;;;;;;;11.88;100.00;100886.03;5536085;32;35446;-70
2022/11/01 13:09:02;;;;;;;;;;;;;;;12.02;100.00;100903.16;5550034;32;34472;-70
2022/11/01 13:12:12;;;;;;;;;;;;;;;11.91;100.00;100896.31;5549887;32;35193;-70
2022/11/01 13:15:29;;;;;;;;;;;;;;;12.09;100.00;100893.53;5549857;32;34792;-70
2022/11/01 13:18:42;;;;;;;;;;;;;;;12.05;100.00;100895.69;5549724;32;35261;-70
2022/11/01 13:21:49;;;;;;;;;;;;;;;12.07;100.00;100899.03;5535889;32;34558;-70
2022/11/01 13:25:03;;;;;;;;;;;;;;;12.10;100.00;100898.69;5549545;32;34700;-70
2022/11/01 13:28:11;;;;;;;;;;;;;;;11.90;100.00;100896.50;5535844;32;34347;-71
2022/11/01 13:31:30;;;;;;;;;;;;;;;11.67;100.00;100888.28;5551767;32;34578;-70
2022/11/01 13:34:55;;;;;;;;;;;;;;;11.61;100.00;100880.97;5552058;32;34841;-70
2022/11/01 13:38:11;;;;;;;;;;;;;;;11.83;100.00;100874.22;5538198;32;35536;-71
2022/11/01 13:41:42;;;;;;;;;;;;;;;11.98;100.00;100872.59;5526745;32;34629;-70
2022/11/01 13:45:00;;;;;;;;;;;;;;;11.91;100.00;100876.91;5538336;32;35321;-70
2022/11/01 13:48:16;;;;;;;;;;;;;;;11.93;100.00;100872.25;5538742;32;35116;-70
2022/11/01 13:51:28;;;;;;;;;;;;;;;11.96;100.00;100875.41;5551783;32;34950;-71
2022/11/01 13:54:52;;;;;;;;;;;;;;;11.73;100.00;100877.03;5525499;32;35557;-70
2022/11/01 13:57:58;;;;;;;;;;;;;;;11.71;100.00;100874.50;5537353;32;35854;-70
2022/11/01 14:01:40;;;;;;;;;;;;;;;11.80;100.00;100877.22;5537682;32;34802;-70
2022/11/01 14:04:54;;;;;;;;;;;;;;;11.71;100.00;100879.81;5460118;32;34612;-70
2022/11/01 14:08:03;;;;;;;;;;;;;;;11.68;100.00;100879.31;5472547;32;33931;-70
2022/11/01 14:11:11;;;;;;;;;;;;;;;11.69;100.00;100870.34;5472693;32;35271;-71
2022/11/01 14:14:30;;;;;;;;;;;;;;;11.61;100.00;100867.69;5473233;32;34483;-70
2022/11/01 14:17:51;;;;;;;;;;;;;;;11.66;100.00;100876.00;5473043;32;34411;-70
2022/11/01 14:21:18;;;;;;;;;;;;;;;11.70;100.00;100869.34;5472845;32;33037;-70
2022/11/01 14:24:25;;;;;;;;;;;;;;;11.77;100.00;100870.38;5460352;32;35726;-70
2022/11/01 14:27:39;;;;;;;;;;;;;;;11.74;100.00;100879.53;5472681;32;35146;-70
2022/11/01 14:30:44;;;;;;;;;;;;;;;11.73;100.00;100877.03;5472738;32;36001;-71
2022/11/01 14:33:52;;;;;;;;;;;;;;;11.76;100.00;100882.84;5472804;32;34613;-71
2022/11/01 14:37:12;;;;;;;;;;;;;;;11.64;100.00;100872.66;5476021;32;34209;-71
2022/11/01 14:40:51;;;;;;;;;;;;;;;11.58;100.00;100875.97;5550781;32;34831;-71
2022/11/01 14:44:02;;;;;;;;;;;;;;;11.46;100.00;100872.78;5507122;32;34550;-70
2022/11/01 14:47:22;;;;;;;;;;;;;;;11.59;100.00;100878.47;5537148;32;35507;-70
2022/11/01 14:50:44;;;;;;;;;;;;;;;11.70;100.00;100870.19;5550460;32;34655;-71
2022/11/01 14:54:00;;;;;;;;;;;;;;;11.62;100.00;100878.13;5536910;32;34899;-71
2022/11/01 14:57:18;;;;;;;;;;;;;;;11.69;100.00;100879.16;5550246;32;34545;-70
2022/11/01 15:00:28;;;;;;;;;;;;;;;11.61;100.00;100880.97;5535892;32;35324;-70
2022/11/01 15:03:36;;;;;;;;;;;;;;;11.48;100.00;100878.75;5536516;32;34276;-70
2022/11/01 15:06:44;;;;;;;;;;;;;;;11.34;100.00;100882.88;5550668;32;34555;-71
2022/11/01 15:09:59;;;;;;;;;;;;;;;11.44;100.00;100881.91;5536997;32;34664;-70
2022/11/01 15:13:04;;;;;;;;;;;;;;;11.49;100.00;100891.06;5550260;32;35178;-70
2022/11/01 15:16:25;;;;;;;;;;;;;;;11.42;100.00;100891.88;5550566;32;34572;-70
2022/11/01 15:19:34;;;;;;;;;;;;;;;11.43;100.00;100890.84;5536806;32;35692;-71
2022/11/01 15:22:43;;;;;;;;;;;;;;;11.19;100.00;100891.59;5530141;32;35613;-70
2022/11/01 15:25:51;;;;;;;;;;;;;;;11.08;100.00;100894.56;5517922;32;35779;-71
2022/11/01 15:29:03;;;;;;;;;;;;;;;11.06;100.00;100891.19;5530875;32;34651;-71
2022/11/01 15:32:21;;;;;;;;;;;;;;;11.05;100.00;100894.84;5530220;32;34630;-71
2022/11/01 15:35:29;;;;;;;;;;;;;;;10.98;100.00;100897.31;5529835;32;35936;-71
2022/11/01 15:38:35;;;;;;;;;;;;;;;10.96;100.00;100890.47;5530279;32;34893;-70
2022/11/01 15:41:45;;;;;;;;;;;;;;;11.03;100.00;100897.69;5531033;32;34903;-70
2022/11/01 15:44:50;;;;;;;;;;;;;;;10.97;100.00;100892.16;5530601;32;35008;-70
2022/11/01 15:47:59;;;;;;;;;;;;;;;10.95;100.00;100888.81;5528729;32;35142;-70
2022/11/01 15:51:06;;;;;;;;;;;;;;;10.92;100.00;100884.66;5530574;32;35216;-70
2022/11/01 15:54:17;;;;;;;;;;;;;;;11.07;100.00;100895.53;5517459;32;34803;-70
2022/11/01 15:57:27;;;;;;;;;;;;;;;11.19;100.00;100892.44;5531322;32;35185;-71
2022/11/01 16:00:39;;;;;;;;;;;;;;;10.93;100.00;100898.78;5530614;32;35141;-70
2022/11/01 16:03:52;;;;;;;;;;;;;;;10.92;100.00;100891.78;5531307;32;34970;-70
2022/11/01 16:07:02;;;;;;;;;;;;;;;10.95;100.00;100894.97;5531401;32;35159;-71
2022/11/01 16:10:18;;;;;;;;;;;;;;;11.12;100.00;100904.69;5531171;32;35141;-70
2022/11/01 16:13:24;;;;;;;;;;;;;;;11.09;100.00;100897.03;5531462;32;35052;-70
2022/11/01 16:16:50;;;;;;;;;;;;;;;11.11;100.00;100902.19;5530035;32;34372;-70
2022/11/01 16:19:57;;;;;;;;;;;;;;;11.11;100.00;100902.19;5530994;32;35123;-70
2022/11/01 16:23:05;;;;;;;;;;;;;;;11.07;100.00;100898.19;5529283;32;34611;-70